Time;durP1;ratioP1;P1;durP2;ratioP2;P2;SDS_P1;SDS_P2;PMS_P1;PMS_P2;Temp;Humidity;BMP_temperature;BMP_pressure;BME280_temperature;BME280_humidity;BME280_pressure;Samples;Min_cycle;Max_cycle;Signal;HPM_P1;HPM_P2
2022/04/01 00:00:05;;;;;;;58.10;30.20;;;;;;;3.32;100.00;94608.72;2064393;28;20209;-63
2022/04/01 00:01:06;;;;;;;66.13;33.90;;;;;;;3.23;100.00;94606.78;2063613;28;20713;-63
2022/04/01 00:02:08;;;;;;;61.05;32.58;;;;;;;3.25;100.00;94606.69;2064256;28;20209;-63
2022/04/01 00:03:10;;;;;;;66.15;32.67;;;;;;;3.25;100.00;94610.09;2064355;28;20206;-63
2022/04/01 00:04:11;;;;;;;65.63;34.17;;;;;;;3.26;100.00;94598.81;2064284;28;20289;-63
2022/04/01 00:05:13;;;;;;;65.38;34.22;;;;;;;3.23;100.00;94593.03;2063453;28;20749;-63
2022/04/01 00:06:14;;;;;;;69.07;34.53;;;;;;;3.33;100.00;94604.38;2064944;28;20241;-64
2022/04/01 00:07:17;;;;;;;69.78;34.90;;;;;;;3.28;100.00;94612.47;2066036;28;20554;-63
2022/04/01 00:08:18;;;;;;;85.30;36.25;;;;;;;3.29;100.00;94601.19;2065308;28;20352;-64
2022/04/01 00:09:20;;;;;;;86.03;37.58;;;;;;;3.41;100.00;94609.00;2065756;28;20221;-63
2022/04/01 00:10:21;;;;;;;80.40;38.17;;;;;;;3.39;100.00;94605.69;2065845;28;20206;-63
2022/04/01 00:11:23;;;;;;;120.35;38.28;;;;;;;3.32;100.00;94608.72;2065421;28;20233;-63
2022/04/01 00:12:24;;;;;;;96.93;38.30;;;;;;;3.29;100.00;94606.38;2065783;28;20546;-63
2022/04/01 00:13:26;;;;;;;72.15;36.90;;;;;;;3.20;100.00;94609.59;2065766;28;20194;-63
2022/04/01 00:14:28;;;;;;;87.18;42.95;;;;;;;3.14;100.00;94607.47;2065954;28;20244;-63
2022/04/01 00:15:29;;;;;;;104.53;40.88;;;;;;;3.19;100.00;94604.53;2065473;28;20205;-63
2022/04/01 00:16:31;;;;;;;82.68;40.10;;;;;;;3.17;100.00;94604.63;2065282;28;20233;-63
2022/04/01 00:17:33;;;;;;;110.05;42.35;;;;;;;3.23;100.00;94609.38;2065998;28;20210;-63
2022/04/01 00:18:34;;;;;;;112.55;44.05;;;;;;;3.25;100.00;94604.91;2065754;28;20638;-63
2022/04/01 00:19:36;;;;;;;131.57;43.60;;;;;;;3.21;100.00;94603.47;2065963;28;20194;-63
2022/04/01 00:20:38;;;;;;;129.75;45.63;;;;;;;3.21;100.00;94603.47;2065515;28;20214;-63
2022/04/01 00:21:39;;;;;;;113.45;42.83;;;;;;;3.29;100.00;94605.53;2065884;28;20713;-63
2022/04/01 00:22:41;;;;;;;89.50;41.67;;;;;;;3.29;100.00;94608.13;2065878;28;20213;-63
2022/04/01 00:23:42;;;;;;;201.27;44.70;;;;;;;3.19;100.00;94601.94;2065939;28;20550;-63
2022/04/01 00:24:45;;;;;;;250.70;43.65;;;;;;;3.13;100.00;94605.78;2065931;28;20244;-63
2022/04/01 00:25:47;;;;;;;120.82;42.25;;;;;;;3.01;100.00;94596.31;2065576;28;20233;-63
2022/04/01 00:26:49;;;;;;;116.15;44.50;;;;;;;3.09;100.00;94607.75;2065295;28;20546;-63
2022/04/01 00:27:50;;;;;;;94.03;41.42;;;;;;;3.10;100.00;94608.63;2065956;28;20202;-63
2022/04/01 00:28:52;;;;;;;106.35;40.88;;;;;;;3.09;100.00;94606.94;2064780;28;20256;-63
2022/04/01 00:29:54;;;;;;;76.93;39.47;;;;;;;3.07;100.00;94606.22;2065808;28;20544;-63
2022/04/01 00:30:55;;;;;;;71.13;39.67;;;;;;;2.97;100.00;94609.47;2065453;28;20233;-63
2022/04/01 00:32:01;;;;;;;80.97;41.15;;;;;;;2.98;100.00;94610.31;2064591;28;20213;-62
2022/04/01 00:33:04;;;;;;;75.03;38.90;;;;;;;2.96;100.00;94607.81;2067228;28;20198;-63
2022/04/01 00:34:18;;;;;;;83.32;40.97;;;;;;;2.89;100.00;94605.78;2066258;28;20633;-63
2022/04/01 00:35:20;;;;;;;77.55;39.47;;;;;;;2.91;100.00;94604.72;2065027;28;20194;-63
2022/04/01 00:36:22;;;;;;;78.70;40.90;;;;;;;2.93;100.00;94602.84;2065213;28;20222;-63
2022/04/01 00:37:23;;;;;;;73.70;36.15;;;;;;;2.86;100.00;94603.38;2065417;28;20195;-63
2022/04/01 00:38:24;;;;;;;84.22;39.63;;;;;;;2.87;100.00;94608.47;2065799;28;20206;-63
2022/04/01 00:39:29;;;;;;;75.13;38.05;;;;;;;2.80;100.00;94606.41;2065724;28;20217;-62
2022/04/01 00:40:31;;;;;;;78.25;39.65;;;;;;;2.91;100.00;94604.72;2065450;28;20199;-62
2022/04/01 00:41:32;;;;;;;79.78;40.00;;;;;;;2.84;100.00;94613.00;2065617;28;20198;-63
2022/04/01 00:42:34;;;;;;;78.70;37.97;;;;;;;2.89;100.00;94611.75;2064163;28;20210;-63
2022/04/01 00:43:36;;;;;;;82.53;38.42;;;;;;;2.91;100.00;94606.50;2065536;28;20213;-63
2022/04/01 00:44:39;;;;;;;80.20;40.13;;;;;;;2.95;100.00;94613.09;2065695;28;20205;-62
2022/04/01 00:45:40;;;;;;;74.00;39.65;;;;;;;2.89;100.00;94600.59;2065520;28;20646;-63
2022/04/01 00:46:44;;;;;;;82.28;39.55;;;;;;;2.91;100.00;94609.88;2065945;28;20198;-63
2022/04/01 00:47:45;;;;;;;88.95;38.40;;;;;;;2.91;100.00;94607.31;2066335;28;20202;-63
2022/04/01 00:48:47;;;;;;;93.30;40.22;;;;;;;2.82;100.00;94604.53;2066280;28;20696;-63
2022/04/01 00:49:48;;;;;;;79.18;39.92;;;;;;;2.90;100.00;94610.00;2066155;28;20194;-63
2022/04/01 00:50:50;;;;;;;77.53;38.85;;;;;;;2.85;100.00;94604.34;2065780;28;20222;-63
2022/04/01 00:51:53;;;;;;;72.25;36.40;;;;;;;2.79;100.00;94615.94;2066209;28;20419;-64
2022/04/01 00:52:54;;;;;;;70.60;35.58;;;;;;;2.76;100.00;94604.06;2066213;28;20202;-63
2022/04/01 00:53:56;;;;;;;72.75;35.95;;;;;;;2.79;100.00;94605.59;2066273;28;20198;-63
2022/04/01 00:54:59;;;;;;;75.43;36.20;;;;;;;2.90;100.00;94603.09;2066233;28;20225;-63
2022/04/01 00:56:01;;;;;;;72.22;36.53;;;;;;;2.85;100.00;94594.81;2065635;28;20226;-63
2022/04/01 00:57:05;;;;;;;68.55;34.75;;;;;;;2.94;100.00;94604.53;2065531;28;20199;-64
2022/04/01 00:58:09;;;;;;;66.57;34.33;;;;;;;2.96;100.00;94607.81;2066074;28;20265;-63
2022/04/01 00:59:12;;;;;;;72.93;35.08;;;;;;;2.95;100.00;94607.94;2065670;28;20681;-63
2022/04/01 01:00:19;;;;;;;67.25;34.63;;;;;;;2.87;100.00;94612.81;2065577;28;20260;-63
2022/04/01 01:01:20;;;;;;;64.55;34.55;;;;;;;2.88;100.00;94599.78;2064196;28;20226;-63
2022/04/01 01:02:22;;;;;;;64.45;34.42;;;;;;;2.80;100.00;94607.22;2065479;28;20285;-63
2022/04/01 01:03:23;;;;;;;58.78;32.40;;;;;;;2.79;100.00;94607.34;2065529;28;20198;-63
2022/04/01 01:04:25;;;;;;;60.72;32.67;;;;;;;2.85;100.00;94606.91;2065374;28;20206;-64
2022/04/01 01:05:26;;;;;;;61.30;33.58;;;;;;;2.79;100.00;94600.41;2065073;28;20205;-64
2022/04/01 01:06:30;;;;;;;61.63;32.63;;;;;;;2.82;100.00;94597.59;2065129;28;20201;-63
2022/04/01 01:07:32;;;;;;;59.58;32.20;;;;;;;2.87;100.00;94605.88;2065301;28;20201;-64
2022/04/01 01:08:34;;;;;;;64.25;31.95;;;;;;;2.88;100.00;94604.94;2065485;28;20593;-63
2022/04/01 01:09:36;;;;;;;58.65;31.90;;;;;;;2.77;100.00;94610.03;2065517;28;20199;-63
2022/04/01 01:10:37;;;;;;;61.90;33.45;;;;;;;2.78;100.00;94609.09;2064154;28;20198;-63
2022/04/01 01:11:39;;;;;;;64.35;33.80;;;;;;;2.78;100.00;94616.84;2065432;28;20190;-64
2022/04/01 01:12:41;;;;;;;69.63;35.95;;;;;;;2.82;100.00;94614.88;2065374;28;20639;-64
2022/04/01 01:13:43;;;;;;;63.15;34.08;;;;;;;2.76;100.00;94616.97;2064703;28;20198;-64
2022/04/01 01:14:44;;;;;;;67.90;35.80;;;;;;;2.70;100.00;94617.38;2065260;28;20202;-63
2022/04/01 01:15:46;;;;;;;63.40;34.45;;;;;;;2.71;100.00;94603.53;2064850;28;20218;-64
2022/04/01 01:16:48;;;;;;;64.93;35.03;;;;;;;2.82;100.00;94610.53;2064968;28;20198;-63
2022/04/01 01:17:49;;;;;;;66.20;33.55;;;;;;;2.88;100.00;94611.84;2065305;28;20791;-63
2022/04/01 01:19:08;;;;;;;67.85;34.58;;;;;;;2.71;100.00;94607.88;2065363;28;20202;-63
2022/04/01 01:20:15;;;;;;;61.67;32.50;;;;;;;2.79;100.00;94603.00;2065070;28;20221;-64
2022/04/01 01:21:19;;;;;;;70.22;35.05;;;;;;;2.78;100.00;94611.66;2064484;28;20222;-63
2022/04/01 01:22:20;;;;;;;64.82;32.85;;;;;;;2.81;100.00;94611.47;2065353;28;20225;-64
2022/04/01 01:23:31;;;;;;;63.20;31.13;;;;;;;2.67;100.00;94589.16;2066822;28;20205;-63
2022/04/01 01:24:35;;;;;;;56.33;30.88;;;;;;;2.79;100.00;94607.34;2065281;28;20222;-64
2022/04/01 01:25:37;;;;;;;61.75;33.50;;;;;;;2.83;100.00;94611.38;2064641;28;20194;-64
2022/04/01 01:26:39;;;;;;;66.22;34.13;;;;;;;2.79;100.00;94610.75;2065278;28;20551;-64
2022/04/01 01:27:41;;;;;;;64.90;32.80;;;;;;;2.73;100.00;94606.84;2065169;28;20642;-64
2022/04/01 01:28:43;;;;;;;67.45;33.83;;;;;;;2.71;100.00;94603.53;2065348;28;20200;-64
2022/04/01 01:29:46;;;;;;;62.10;33.08;;;;;;;2.76;100.00;94601.47;2065201;28;20203;-63
2022/04/01 01:30:48;;;;;;;64.32;34.03;;;;;;;2.73;100.00;94596.50;2064731;28;20732;-64
2022/04/01 01:31:49;;;;;;;69.78;35.40;;;;;;;2.77;100.00;94603.09;2065173;28;20221;-64
2022/04/01 01:32:51;;;;;;;71.75;35.85;;;;;;;2.83;100.00;94606.19;2064347;28;20210;-64
2022/04/01 01:33:55;;;;;;;61.45;33.67;;;;;;;2.88;100.00;94593.75;2064653;28;20194;-64
2022/04/01 01:34:56;;;;;;;80.78;34.50;;;;;;;2.81;100.00;94606.31;2064161;28;20190;-64
2022/04/01 01:35:58;;;;;;;76.68;34.70;;;;;;;2.85;100.00;94607.75;2064485;28;20230;-64
2022/04/01 01:37:02;;;;;;;65.65;34.90;;;;;;;2.81;100.00;94605.47;2065256;28;20578;-64
2022/04/01 01:38:04;;;;;;;66.10;34.00;;;;;;;2.79;100.00;94603.00;2065090;28;20210;-64
2022/04/01 01:39:06;;;;;;;86.28;33.33;;;;;;;2.78;100.00;94609.09;2065296;28;20565;-64
2022/04/01 01:40:08;;;;;;;62.97;31.75;;;;;;;2.77;100.00;94600.50;2065114;28;20214;-64
2022/04/01 01:41:10;;;;;;;61.72;33.47;;;;;;;2.75;100.00;94609.31;2064845;28;20336;-63
2022/04/01 01:42:12;;;;;;;79.18;31.98;;;;;;;2.58;100.00;94611.28;2065165;28;20688;-64
2022/04/01 01:43:14;;;;;;;77.45;32.80;;;;;;;2.60;100.00;94605.22;2065115;28;20206;-63
2022/04/01 01:44:16;;;;;;;81.75;35.35;;;;;;;2.67;100.00;94606.44;2065036;28;20203;-64
2022/04/01 01:45:19;;;;;;;94.80;33.97;;;;;;;2.60;100.00;94602.63;2064831;28;20198;-63
2022/04/01 01:46:21;;;;;;;96.00;34.45;;;;;;;2.65;100.00;94603.97;2062814;28;20281;-64
2022/04/01 01:47:22;;;;;;;66.47;33.90;;;;;;;2.61;100.00;94606.84;2065125;28;20661;-63
2022/04/01 01:48:24;;;;;;;101.47;36.42;;;;;;;2.57;100.00;94607.06;2064509;28;20194;-64
2022/04/01 01:49:25;;;;;;;68.00;33.30;;;;;;;2.62;100.00;94605.94;2064999;28;20202;-64
2022/04/01 01:54:43;;;;;;;113.80;33.88;;;;;;;2.54;100.00;94604.69;2065112;28;20206;-64
2022/04/01 01:55:44;;;;;;;73.93;32.58;;;;;;;2.50;100.00;94603.25;2064565;28;20571;-64
2022/04/01 01:56:46;;;;;;;192.80;37.10;;;;;;;2.55;100.00;94602.94;2064978;28;20194;-64
2022/04/01 01:57:47;;;;;;;99.20;34.00;;;;;;;2.55;100.00;94600.38;2065035;28;20546;-64
2022/04/01 01:58:49;;;;;;;78.85;34.67;;;;;;;2.55;100.00;94603.75;2064916;28;20210;-64
2022/04/01 01:59:52;;;;;;;185.98;37.05;;;;;;;2.57;100.00;94609.66;2065041;28;20649;-63
2022/04/01 02:00:53;;;;;;;82.63;33.70;;;;;;;2.58;100.00;94603.53;2063850;28;20226;-63
2022/04/01 02:01:55;;;;;;;111.15;33.90;;;;;;;2.49;100.00;94604.19;2063023;28;20198;-64
2022/04/01 02:02:56;;;;;;;120.78;35.55;;;;;;;2.56;100.00;94602.00;2064758;28;20194;-64
2022/04/01 02:04:00;;;;;;;130.05;36.65;;;;;;;2.57;100.00;94603.66;2064608;28;20466;-64
2022/04/01 02:05:02;;;;;;;145.82;35.63;;;;;;;2.56;100.00;94604.59;2064728;28;20202;-64
2022/04/01 02:06:03;;;;;;;140.95;35.53;;;;;;;2.62;100.00;94604.16;2064098;28;20669;-64
2022/04/01 02:07:05;;;;;;;93.93;33.63;;;;;;;2.53;100.00;94597.88;2064862;28;20198;-64
2022/04/01 02:08:08;;;;;;;120.63;34.95;;;;;;;2.51;100.00;94598.91;2064732;28;20209;-64
2022/04/01 02:09:10;;;;;;;183.38;37.17;;;;;;;2.56;100.00;94589.91;2064561;28;20293;-64
2022/04/01 02:10:11;;;;;;;219.90;35.92;;;;;;;2.51;100.00;94593.72;2064359;28;20194;-64
2022/04/01 02:11:14;;;;;;;328.60;41.25;;;;;;;2.54;100.00;94596.09;2064314;28;20246;-64
2022/04/01 02:12:18;;;;;;;327.95;39.50;;;;;;;2.46;100.00;94596.63;2064327;28;20199;-64
2022/04/01 02:13:19;;;;;;;124.65;35.15;;;;;;;2.48;100.00;94593.94;2064133;28;20209;-63
2022/04/01 02:14:21;;;;;;;92.40;34.85;;;;;;;2.50;100.00;94590.31;2063920;28;20213;-64
2022/04/01 02:15:23;;;;;;;220.20;36.72;;;;;;;2.37;100.00;94592.09;2064897;28;20198;-63
2022/04/01 02:16:24;;;;;;;356.63;42.60;;;;;;;2.20;100.00;94571.78;2064607;28;20238;-64
2022/04/01 02:17:25;;;;;;;233.77;38.85;;;;;;;2.34;100.00;94594.91;2064749;28;20198;-64
2022/04/01 02:18:27;;;;;;;350.27;46.13;;;;;;;2.21;100.00;94596.66;2064477;28;20573;-63
2022/04/01 02:19:30;;;;;;;345.55;42.53;;;;;;;2.22;100.00;94595.72;2064845;28;20561;-64
2022/04/01 02:20:33;;;;;;;107.20;34.80;;;;;;;2.35;100.00;94601.69;2063436;28;20198;-64
2022/04/01 02:21:34;;;;;;;369.25;43.25;;;;;;;2.28;100.00;94595.31;2063209;28;20202;-64
2022/04/01 02:22:39;;;;;;;123.90;34.97;;;;;;;2.32;100.00;94596.75;2064885;28;20202;-64
2022/04/01 02:23:43;;;;;;;221.50;40.03;;;;;;;2.21;100.00;94588.91;2064829;28;20552;-63
2022/04/01 02:24:50;;;;;;;207.25;36.30;;;;;;;2.32;100.00;94594.19;2064168;28;20195;-64
2022/04/01 02:25:52;;;;;;;233.15;38.85;;;;;;;2.24;100.00;94594.69;2064191;28;20295;-64
2022/04/01 02:26:53;;;;;;;263.67;41.92;;;;;;;2.26;100.00;94592.84;2064597;28;20191;-64
2022/04/01 02:27:55;;;;;;;163.50;39.38;;;;;;;2.26;100.00;94595.41;2064683;28;20194;-63
2022/04/01 02:28:59;;;;;;;133.68;38.17;;;;;;;2.21;100.00;94591.50;2063022;28;20702;-64
2022/04/01 02:30:01;;;;;;;114.65;37.90;;;;;;;2.26;100.00;94595.41;2063886;28;20202;-64
2022/04/01 02:31:07;;;;;;;103.80;37.13;;;;;;;2.29;100.00;94589.19;2063167;28;20223;-64
2022/04/01 02:32:08;;;;;;;145.48;39.75;;;;;;;2.25;100.00;94592.94;2064838;28;20206;-64
2022/04/01 02:33:10;;;;;;;100.50;35.72;;;;;;;2.25;100.00;94596.31;2064649;28;20194;-63
2022/04/01 02:34:12;;;;;;;151.55;35.65;;;;;;;2.25;100.00;94595.50;2064474;28;20229;-64
2022/04/01 02:35:13;;;;;;;131.00;35.55;;;;;;;2.20;100.00;94602.75;2064773;28;20202;-64
2022/04/01 02:36:15;;;;;;;103.68;37.17;;;;;;;2.06;100.00;94601.94;2064321;28;20241;-63
2022/04/01 02:37:20;;;;;;;95.97;37.53;;;;;;;2.14;100.00;94598.84;2064726;28;20213;-64
2022/04/01 02:38:22;;;;;;;92.95;37.42;;;;;;;2.11;100.00;94599.03;2064322;28;20642;-64
2022/04/01 02:39:24;;;;;;;67.95;34.55;;;;;;;2.10;100.00;94598.22;2064764;28;20194;-64
2022/04/01 02:40:25;;;;;;;73.68;36.28;;;;;;;2.02;100.00;94602.22;2064273;28;20198;-63
2022/04/01 02:41:27;;;;;;;68.20;34.78;;;;;;;2.04;100.00;94598.63;2064328;28;20209;-63
2022/04/01 02:42:28;;;;;;;60.30;31.92;;;;;;;2.09;100.00;94590.56;2064754;28;20198;-64
2022/04/01 02:43:31;;;;;;;63.72;31.60;;;;;;;2.07;100.00;94595.81;2063678;28;20199;-63
2022/04/01 02:44:33;;;;;;;57.50;31.10;;;;;;;2.03;100.00;94596.94;2064715;28;20289;-63
2022/04/01 02:45:34;;;;;;;57.63;30.70;;;;;;;2.06;100.00;94596.75;2064151;28;20227;-63
2022/04/01 02:46:42;;;;;;;61.33;30.48;;;;;;;1.97;100.00;94602.53;2064595;28;20195;-63
2022/04/01 02:47:43;;;;;;;58.70;30.85;;;;;;;2.02;100.00;94597.06;2064693;28;20190;-64
2022/04/01 02:48:45;;;;;;;58.00;29.70;;;;;;;2.07;100.00;94600.16;2064475;28;20302;-63
2022/04/01 02:49:46;;;;;;;60.40;32.03;;;;;;;1.93;100.00;94577.84;2064704;28;20194;-63
2022/04/01 02:50:48;;;;;;;57.03;29.33;;;;;;;2.03;100.00;94588.38;2064113;28;20233;-63
2022/04/01 02:51:53;;;;;;;69.68;33.15;;;;;;;2.02;100.00;94604.78;2064548;28;20205;-63
2022/04/01 02:52:54;;;;;;;62.17;31.73;;;;;;;2.06;100.00;94601.06;2064633;28;21117;-63
2022/04/01 02:53:56;;;;;;;60.42;31.98;;;;;;;2.06;100.00;94606.25;2064619;28;20201;-63
2022/04/01 02:54:57;;;;;;;62.80;32.90;;;;;;;2.15;100.00;94592.72;2064645;28;20202;-63
2022/04/01 02:55:59;;;;;;;62.65;32.38;;;;;;;2.16;100.00;94590.03;2064068;28;20222;-63
2022/04/01 02:57:02;;;;;;;57.83;31.27;;;;;;;2.19;100.00;94601.91;2064609;28;20202;-63
2022/04/01 02:58:05;;;;;;;62.45;29.42;;;;;;;2.19;100.00;94596.75;2064507;28;20248;-63
2022/04/01 02:59:08;;;;;;;57.65;32.08;;;;;;;2.18;100.00;94595.09;2064330;28;20210;-63
2022/04/01 03:00:10;;;;;;;59.75;30.73;;;;;;;2.15;100.00;94596.13;2063549;28;20202;-63
2022/04/01 03:01:12;;;;;;;57.63;28.73;;;;;;;2.10;100.00;94589.66;2063430;28;20226;-63
2022/04/01 03:02:14;;;;;;;57.75;27.83;;;;;;;2.04;100.00;94600.34;2063402;28;20662;-63
2022/04/01 03:03:16;;;;;;;49.40;26.27;;;;;;;2.05;100.00;94600.25;2064564;28;20546;-63
2022/04/01 03:04:18;;;;;;;51.47;26.92;;;;;;;2.03;100.00;94602.13;2064425;28;20203;-63
2022/04/01 03:05:23;;;;;;;50.53;26.23;;;;;;;2.04;100.00;94602.94;2064155;28;20268;-63
2022/04/01 03:06:24;;;;;;;46.30;26.08;;;;;;;1.97;100.00;94608.50;2064125;28;20221;-63
2022/04/01 03:07:28;;;;;;;51.45;26.70;;;;;;;2.05;100.00;94602.84;2064180;28;20610;-62
2022/04/01 03:08:30;;;;;;;57.60;28.83;;;;;;;1.82;100.00;94586.28;2064374;28;20198;-63
2022/04/01 03:09:32;;;;;;;50.72;27.25;;;;;;;1.96;100.00;94611.19;2064535;28;20513;-63
2022/04/01 03:10:35;;;;;;;51.38;26.38;;;;;;;1.87;100.00;94598.91;2063692;28;20209;-62
2022/04/01 03:11:37;;;;;;;50.95;25.55;;;;;;;1.89;100.00;94599.63;2063888;28;20194;-63
2022/04/01 03:12:38;;;;;;;55.58;26.88;;;;;;;1.97;100.00;94599.94;2064334;28;20198;-63
2022/04/01 03:13:41;;;;;;;53.50;27.92;;;;;;;2.09;100.00;94600.88;2064429;28;20638;-63
2022/04/01 03:14:43;;;;;;;46.38;26.48;;;;;;;1.83;100.00;94605.22;2063757;28;20198;-63
2022/04/01 03:15:47;;;;;;;53.47;28.48;;;;;;;1.91;100.00;94598.59;2063672;28;20229;-63
2022/04/01 03:16:48;;;;;;;51.03;26.15;;;;;;;1.80;100.00;94593.31;2064209;28;20199;-63
2022/04/01 03:17:50;;;;;;;56.53;26.95;;;;;;;1.84;100.00;94596.53;2064361;28;20638;-62
2022/04/01 03:18:57;;;;;;;50.30;25.58;;;;;;;1.93;100.00;94601.09;2064348;28;20206;-63
2022/04/01 03:20:01;;;;;;;55.92;27.90;;;;;;;1.91;100.00;94605.53;2064345;28;20209;-63
2022/04/01 03:21:02;;;;;;;51.17;27.45;;;;;;;1.93;100.00;94607.06;2063613;28;20230;-63
2022/04/01 03:22:04;;;;;;;49.65;27.13;;;;;;;1.86;100.00;94592.09;2064185;28;20199;-62
2022/04/01 03:23:06;;;;;;;53.45;27.38;;;;;;;1.97;100.00;94605.13;2064356;28;20199;-63
2022/04/01 03:24:12;;;;;;;46.15;25.60;;;;;;;2.02;100.00;94609.97;2064049;28;20205;-62
2022/04/01 03:25:18;;;;;;;55.08;26.33;;;;;;;2.06;100.00;94607.09;2063440;28;20537;-63
2022/04/01 03:26:20;;;;;;;52.17;27.13;;;;;;;2.04;100.00;94596.03;2062347;28;20230;-63
2022/04/01 03:27:21;;;;;;;52.67;27.33;;;;;;;1.98;100.00;94614.53;2064238;28;20198;-63
2022/04/01 03:28:23;;;;;;;49.33;26.45;;;;;;;1.83;100.00;94594.88;2063102;28;20326;-62
2022/04/01 03:29:24;;;;;;;47.60;25.25;;;;;;;1.92;100.00;94608.00;2064144;28;20195;-63
2022/04/01 03:30:27;;;;;;;50.80;25.80;;;;;;;1.89;100.00;94610.78;2063682;28;20210;-63
2022/04/01 03:31:29;;;;;;;50.03;26.00;;;;;;;1.94;100.00;94610.47;2064108;28;20194;-63
2022/04/01 03:32:33;;;;;;;47.40;25.23;;;;;;;1.83;100.00;94607.78;2064318;28;20199;-63
2022/04/01 03:33:35;;;;;;;44.53;24.10;;;;;;;1.85;100.00;94608.50;2064403;28;20672;-63
2022/04/01 03:34:38;;;;;;;48.03;25.80;;;;;;;1.93;100.00;94611.41;2064416;28;20198;-63
2022/04/01 03:35:39;;;;;;;48.50;25.63;;;;;;;1.96;100.00;94606.03;2063740;28;20201;-63
2022/04/01 03:36:41;;;;;;;48.35;25.05;;;;;;;1.91;100.00;94614.09;2064288;28;20281;-62
2022/04/01 03:37:45;;;;;;;47.33;26.40;;;;;;;1.94;100.00;94618.22;2064247;28;20195;-63
2022/04/01 03:38:46;;;;;;;50.05;26.48;;;;;;;1.91;100.00;94616.66;2064093;28;20202;-62
2022/04/01 03:39:48;;;;;;;48.75;27.17;;;;;;;1.89;100.00;94620.28;2063969;28;20836;-62
2022/04/01 03:40:51;;;;;;;45.28;25.35;;;;;;;1.77;100.00;94615.00;2063796;28;20215;-63
2022/04/01 03:41:53;;;;;;;51.65;25.67;;;;;;;1.95;100.00;94619.88;2063791;28;20202;-62
2022/04/01 03:42:55;;;;;;;48.92;27.08;;;;;;;1.93;100.00;94614.81;2064081;28;20197;-63
2022/04/01 03:43:56;;;;;;;49.22;26.27;;;;;;;1.88;100.00;94614.31;2062308;28;20253;-62
2022/04/01 03:45:03;;;;;;;46.47;24.80;;;;;;;1.74;100.00;94609.19;2064327;28;20202;-63
2022/04/01 03:46:13;;;;;;;41.83;22.73;;;;;;;1.75;100.00;94624.59;2063339;28;20706;-63
2022/04/01 03:47:21;;;;;;;41.17;23.10;;;;;;;1.80;100.00;94616.53;2064023;28;20198;-62
2022/04/01 03:48:29;;;;;;;38.90;24.25;;;;;;;1.84;100.00;94623.16;2064340;28;20689;-63
2022/04/01 03:49:33;;;;;;;42.30;22.92;;;;;;;1.87;100.00;94622.16;2063858;28;20190;-62
2022/04/01 03:50:34;;;;;;;40.25;23.42;;;;;;;1.76;100.00;94618.53;2062863;28;20198;-63
2022/04/01 03:51:38;;;;;;;45.25;25.85;;;;;;;1.74;100.00;94622.09;2065167;28;20203;-62
2022/04/01 03:52:45;;;;;;;45.80;24.42;;;;;;;1.77;100.00;94615.00;2063814;28;20253;-62
2022/04/01 03:53:57;;;;;;;43.35;24.33;;;;;;;1.66;100.00;94616.63;2062920;28;20195;-62
2022/04/01 03:55:04;;;;;;;44.70;25.08;;;;;;;1.71;100.00;94625.72;2063976;28;20202;-62
2022/04/01 03:56:06;;;;;;;43.05;24.20;;;;;;;1.69;100.00;94621.59;2063467;28;20313;-62
2022/04/01 03:57:08;;;;;;;43.88;24.08;;;;;;;1.69;100.00;94622.41;2063506;28;20194;-62
2022/04/01 03:58:14;;;;;;;37.08;22.52;;;;;;;1.67;100.00;94623.44;2064131;28;20205;-62
2022/04/01 03:59:17;;;;;;;50.83;25.33;;;;;;;1.71;100.00;94623.16;2063972;28;20202;-62
2022/04/01 04:00:19;;;;;;;39.00;21.77;;;;;;;1.81;100.00;94625.94;2064126;28;20785;-62
2022/04/01 04:01:20;;;;;;;41.03;23.40;;;;;;;1.77;100.00;94624.50;2063638;28;20314;-62
2022/04/01 04:02:22;;;;;;;42.50;23.42;;;;;;;1.70;100.00;94624.06;2064200;28;20294;-62
2022/04/01 04:03:24;;;;;;;42.60;23.50;;;;;;;1.62;100.00;94616.00;2064183;28;20198;-62
2022/04/01 04:04:26;;;;;;;48.13;24.88;;;;;;;1.79;100.00;94625.22;2063698;28;20198;-63
2022/04/01 04:05:30;;;;;;;45.72;24.42;;;;;;;1.67;100.00;94620.88;2063557;28;20194;-62
2022/04/01 04:06:34;;;;;;;40.55;23.38;;;;;;;1.72;100.00;94623.97;2064167;28;20206;-62
2022/04/01 04:07:38;;;;;;;44.78;25.02;;;;;;;1.75;100.00;94627.19;2063971;28;20199;-62
2022/04/01 04:08:40;;;;;;;42.55;23.75;;;;;;;1.68;100.00;94627.69;2064143;28;20198;-63
2022/04/01 04:09:42;;;;;;;42.75;23.83;;;;;;;1.66;100.00;94624.38;2064233;28;20190;-63
2022/04/01 04:10:50;;;;;;;42.70;23.10;;;;;;;1.64;100.00;94627.03;2063367;28;20232;-62
2022/04/01 04:11:52;;;;;;;46.05;24.15;;;;;;;1.68;100.00;94622.50;2063567;28;20195;-62
2022/04/01 04:12:56;;;;;;;48.28;25.30;;;;;;;1.64;100.00;94629.63;2064021;28;20198;-62
2022/04/01 04:14:00;;;;;;;48.65;25.45;;;;;;;1.59;100.00;94634.28;2063974;28;20198;-62
2022/04/01 04:15:04;;;;;;;48.03;24.88;;;;;;;1.60;100.00;94628.16;2064022;28;20207;-62
2022/04/01 04:16:29;;;;;;;51.35;26.38;;;;;;;1.56;100.00;94618.97;2062911;28;20226;-62
2022/04/01 04:17:36;;;;;;;46.83;24.33;;;;;;;1.55;100.00;94633.63;2063543;28;20702;-62
2022/04/01 04:18:51;;;;;;;47.03;25.65;;;;;;;1.51;100.00;94631.34;2062727;28;20190;-62
2022/04/01 04:20:09;;;;;;;49.53;25.20;;;;;;;1.68;100.00;94628.50;2063667;28;20217;-62
2022/04/01 04:21:20;;;;;;;46.25;24.90;;;;;;;1.55;100.00;94632.81;2063418;28;20229;-62
2022/04/01 04:22:45;;;;;;;43.15;24.10;;;;;;;1.45;100.00;94629.16;2063966;28;20198;-63
2022/04/01 04:23:50;;;;;;;46.85;25.25;;;;;;;1.44;100.00;94636.06;2063590;28;20657;-62
2022/04/01 04:24:58;;;;;;;46.55;24.90;;;;;;;1.45;100.00;94632.56;2063966;28;20198;-62
2022/04/01 04:26:04;;;;;;;50.55;26.00;;;;;;;1.56;100.00;94624.94;2063623;28;20230;-62
2022/04/01 04:27:11;;;;;;;45.15;25.73;;;;;;;1.57;100.00;94638.72;2062761;28;20205;-62
2022/04/01 04:28:21;;;;;;;44.83;23.90;;;;;;;1.55;100.00;94640.56;2063704;28;20206;-62
2022/04/01 04:29:25;;;;;;;48.38;25.73;;;;;;;1.44;100.00;94636.06;2063823;28;20204;-63
2022/04/01 04:30:35;;;;;;;41.10;24.75;;;;;;;1.52;100.00;94635.59;2061826;28;20709;-62
2022/04/01 04:31:38;;;;;;;43.10;24.48;;;;;;;1.47;100.00;94630.72;2063832;28;20191;-63
2022/04/01 04:32:54;;;;;;;42.60;22.88;;;;;;;1.51;100.00;94636.50;2063844;28;20202;-62
2022/04/01 04:33:56;;;;;;;45.88;25.88;;;;;;;1.60;100.00;94633.31;2063031;28;20637;-62
2022/04/01 04:35:08;;;;;;;44.33;25.65;;;;;;;1.51;100.00;94636.50;2063323;28;20202;-62
2022/04/01 04:36:11;;;;;;;43.75;24.38;;;;;;;1.34;100.00;94638.41;2063631;28;20643;-63
2022/04/01 04:37:14;;;;;;;47.10;25.55;;;;;;;1.36;100.00;94633.16;2063644;28;20206;-62
2022/04/01 04:38:20;;;;;;;44.67;26.27;;;;;;;1.54;100.00;94642.28;2063286;28;20194;-63
2022/04/01 04:39:35;;;;;;;49.22;26.30;;;;;;;1.51;100.00;94645.09;2063693;28;20211;-62
2022/04/01 04:40:37;;;;;;;40.17;22.63;;;;;;;1.45;100.00;94640.31;2062592;28;20685;-63
2022/04/01 04:41:39;;;;;;;47.63;25.77;;;;;;;1.24;100.00;94623.63;2063368;28;20206;-62
2022/04/01 04:42:45;;;;;;;42.95;24.50;;;;;;;1.40;100.00;94637.19;2063267;28;20205;-63
2022/04/01 04:43:50;;;;;;;44.97;25.60;;;;;;;1.44;100.00;94643.00;2062997;28;20530;-63
2022/04/01 04:44:52;;;;;;;42.25;24.27;;;;;;;1.37;100.00;94645.97;2063990;28;20811;-62
2022/04/01 04:45:58;;;;;;;43.63;25.88;;;;;;;1.45;100.00;94642.91;2063183;28;20677;-63
2022/04/01 04:47:01;;;;;;;45.55;26.20;;;;;;;1.34;100.00;94640.16;2063009;28;20190;-63
2022/04/01 04:48:04;;;;;;;47.95;26.73;;;;;;;1.53;100.00;94653.56;2065331;28;20237;-63
2022/04/01 04:49:06;;;;;;;51.13;27.85;;;;;;;1.55;100.00;94653.47;2063380;28;20199;-62
2022/04/01 04:50:08;;;;;;;47.55;27.30;;;;;;;1.55;100.00;94645.72;2063954;28;20199;-63
2022/04/01 04:51:10;;;;;;;47.75;26.65;;;;;;;1.55;100.00;94651.69;2063480;28;20233;-60
2022/04/01 04:52:12;;;;;;;45.58;26.13;;;;;;;1.52;100.00;94651.88;2064817;28;20202;-61
2022/04/01 04:53:14;;;;;;;43.88;25.38;;;;;;;1.60;100.00;94656.56;2065146;28;20201;-61
2022/04/01 04:54:18;;;;;;;50.95;28.77;;;;;;;1.58;100.00;94654.06;2065496;28;20210;-61